Airfield :
LOGIN :

Register | Disclaimer

   EN    FR    IT 

 










Legend :    VFR   Marginal VFR   IFR   Intensive IFR   Very Intensive IFR
Visi :
Ceiling :
>= 8 km
>= 3000ft
5 to 8 km
1000 to 3000 ft
1500m to 5 km
500 to 1000 ft
800 to 1500m
200 to 500 ft
< 800m
< 200 ft
Symbols :   Thunderstorms  Fog  Heavy snow  Heavy precipitations  Wind > 20 kt
SIGMETs :     Misc.  Thunderstorms  Icing  Turbulence  Mountain Waves  Volcanic Ashes







- Airport Elevation : 202 ft
- IATA code : LGW
- Download approach charts


EGKK - London Gatwick

CURRENT METAR :
  • 162020Z 20006KT 160V240 9999 FEW033 15/12 Q1019

EXPIRED METARs :
  • 161950Z 21007KT 180V240 9999 FEW016 16/12 Q1019
  • 161920Z 22010KT 9999 FEW033 16/11 Q1019
  • 161850Z 21010KT 9999 FEW033 16/11 Q1018
  • 161820Z 22009KT 9999 FEW030 SCT035 17/11 Q1018
  • 161750Z 22012KT 9999 FEW025 SCT030 17/11 Q1018

TAF TAF EGKK
Valid from the 16 at 18:00 until the 18 at 00:00 UTC


161704Z 1618/1724 23012KT 9999 SCT025
BECMG 1718/1721 VRB03KT
No reported NOTAMs for that airfield.
1 SIGMET reported for the London FIR (EGTT) :
 
Severe mountain waves
EGTT SIGMET 01 VALID 162010/162330 EGRR
EGTT LONDON FIR SEV MTW FCST WI N5444 W00114 - N5306 W00010 - N5156 W00445 - N5438 W00305 - N5444 W00114 FL030/180 STNR NC=



MET'MAP, your aeronautical weather chart ! - Copyright ORBIFLY December 2007 - Disclaimer

ORBIFLY MET'MAP TEAM :

Programming & Development : Alexandra Zaïnal
Concept & Development : Baudouin d'Aumeries
Co-Development & Prog : Marc-Olivier Méhu
Technical & hardware support : Manuel Goepfert

Contact : metmap@orbifly.com




SOURCES & CREDITS :

   NOAA